Time,TemperatureF,DewpointF,PressureIn,WindDirection,WindDirectionDegrees,WindSpeedMPH,WindSpeedGustMPH,Humidity,HourlyPrecipIn,Conditions,Clouds,dailyrainin,SoftwareType,DateUTC
2013-05-10 00:12:00,60.0,47.0,30.00,SSE,165,0.0,5.0,62,0.00,,,0.00,weatherlink.com 1.10,2013-05-10 07:12:00,
2013-05-10 00:27:00,58.8,47.0,30.00,SSE,164,0.0,0.0,64,0.00,,,0.00,weatherlink.com 1.10,2013-05-10 07:27:00,
2013-05-10 00:42:00,58.3,46.0,30.00,SSE,165,0.0,0.0,65,0.00,,,0.00,weatherlink.com 1.10,2013-05-10 07:42:00,
2013-05-10 00:57:00,59.0,47.0,30.01,SSE,165,0.0,0.0,65,0.00,,,0.00,weatherlink.com 1.10,2013-05-10 07:57:00,
2013-05-10 01:13:00,59.5,47.0,30.01,SSE,165,0.0,0.0,64,0.00,,,0.00,weatherlink.com 1.10,2013-05-10 08:13:00,
2013-05-10 01:29:00,58.4,47.0,30.01,SSE,165,0.0,2.0,66,0.00,,,0.00,weatherlink.com 1.10,2013-05-10 08:29:00,
2013-05-10 01:44:00,58.8,47.0,30.01,SSE,165,0.0,0.0,65,0.00,,,0.00,weatherlink.com 1.10,2013-05-10 08:44:00,
2013-05-10 01:59:00,58.7,47.0,30.02,SSE,165,2.0,3.0,66,0.00,,,0.00,weatherlink.com 1.10,2013-05-10 08:59:00,
2013-05-10 02:14:00,57.5,47.0,30.02,SSE,164,0.0,0.0,67,0.00,,,0.00,weatherlink.com 1.10,2013-05-10 09:14:00,
2013-05-10 02:29:00,55.4,46.0,30.02,SSE,164,0.0,0.0,72,0.00,,,0.00,weatherlink.com 1.10,2013-05-10 09:29:00,
2013-05-10 02:44:00,54.6,46.0,30.02,SSE,165,0.0,0.0,74,0.00,,,0.00,weatherlink.com 1.10,2013-05-10 09:44:00,
2013-05-10 02:59:00,54.3,47.0,30.02,SSE,164,0.0,0.0,75,0.00,,,0.00,weatherlink.com 1.10,2013-05-10 09:59:00,
2013-05-10 03:14:00,55.1,47.0,30.02,SSE,165,0.0,0.0,74,0.00,,,0.00,weatherlink.com 1.10,2013-05-10 10:14:00,
2013-05-10 03:29:00,54.2,46.0,30.03,SSE,165,0.0,0.0,75,0.00,,,0.00,weatherlink.com 1.10,2013-05-10 10:29:00,
2013-05-10 03:44:00,53.9,47.0,30.03,SSE,165,0.0,0.0,76,0.00,,,0.00,weatherlink.com 1.10,2013-05-10 10:44:00,
2013-05-10 03:59:00,54.1,47.0,30.03,SSE,165,0.0,0.0,76,0.00,,,0.00,weatherlink.com 1.10,2013-05-10 10:59:00,
2013-05-10 04:14:00,53.9,47.0,30.03,SSE,165,0.0,0.0,76,0.00,,,0.00,weatherlink.com 1.10,2013-05-10 11:14:00,
2013-05-10 04:30:00,52.7,46.0,30.03,SSE,165,0.0,0.0,77,0.00,,,0.00,weatherlink.com 1.10,2013-05-10 11:30:00,
2013-05-10 04:45:00,51.9,46.0,30.03,SSE,164,0.0,0.0,80,0.00,,,0.00,weatherlink.com 1.10,2013-05-10 11:45:00,
2013-05-10 05:00:00,52.7,46.0,30.04,SSE,165,0.0,0.0,78,0.00,,,0.00,weatherlink.com 1.10,2013-05-10 12:00:00,
2013-05-10 05:15:00,53.2,47.0,30.04,SSE,164,0.0,0.0,78,0.00,,,0.00,weatherlink.com 1.10,2013-05-10 12:15:00,
2013-05-10 05:30:00,52.2,46.0,30.04,SSE,165,0.0,0.0,78,0.00,,,0.00,weatherlink.com 1.10,2013-05-10 12:30:00,
2013-05-10 05:45:00,51.1,45.0,30.04,SSE,165,0.0,4.0,80,0.00,,,0.00,weatherlink.com 1.10,2013-05-10 12:45:00,
2013-05-10 06:01:00,48.6,44.0,30.04,SSE,159,2.0,5.0,84,0.00,,,0.00,weatherlink.com 1.10,2013-05-10 13:01:00,
2013-05-10 06:16:00,49.7,45.0,30.03,SSE,159,0.0,0.0,85,0.00,,,0.00,weatherlink.com 1.10,2013-05-10 13:16:00,
2013-05-10 06:31:00,50.9,46.0,30.04,West,280,0.0,5.0,82,0.00,,,0.00,weatherlink.com 1.10,2013-05-10 13:31:00,
2013-05-10 06:46:00,52.2,46.0,30.05,West,279,0.0,0.0,80,0.00,,,0.00,weatherlink.com 1.10,2013-05-10 13:46:00,
2013-05-10 07:01:00,55.1,47.0,30.05,West,274,0.0,5.0,75,0.00,,,0.00,weatherlink.com 1.10,2013-05-10 14:01:00,
2013-05-10 07:16:00,56.2,48.0,30.05,West,263,0.0,4.0,74,0.00,,,0.00,weatherlink.com 1.10,2013-05-10 14:16:00,
2013-05-10 07:31:00,57.7,48.0,30.06,SW,231,0.0,8.0,69,0.00,,,0.00,weatherlink.com 1.10,2013-05-10 14:31:00,
2013-05-10 07:47:00,58.9,47.0,30.07,SSW,206,4.0,6.0,66,0.00,,,0.00,weatherlink.com 1.10,2013-05-10 14:47:00,
2013-05-10 08:02:00,59.5,48.0,30.07,SSW,211,0.0,0.0,67,0.00,,,0.00,weatherlink.com 1.10,2013-05-10 15:02:00,
2013-05-10 08:17:00,61.2,49.0,30.07,SSW,211,0.0,0.0,65,0.00,,,0.00,weatherlink.com 1.10,2013-05-10 15:17:00,
2013-05-10 08:32:00,63.0,49.0,30.07,South,186,0.0,0.0,61,0.00,,,0.00,weatherlink.com 1.10,2013-05-10 15:32:00,
2013-05-10 08:47:00,65.4,52.0,30.06,SSE,163,0.0,0.0,62,0.00,,,0.00,weatherlink.com 1.10,2013-05-10 15:47:00,
2013-05-10 09:02:00,67.1,52.0,30.06,SSE,163,0.0,0.0,58,0.00,,,0.00,weatherlink.com 1.10,2013-05-10 16:02:00,
2013-05-10 09:19:00,68.3,50.0,30.06,SSE,164,0.0,4.0,52,0.00,,,0.00,weatherlink.com 1.10,2013-05-10 16:19:00,
2013-05-10 09:34:00,68.5,51.0,30.06,SSE,164,0.0,0.0,53,0.00,,,0.00,weatherlink.com 1.10,2013-05-10 16:34:00,
2013-05-10 09:49:00,69.6,51.0,30.05,SSE,164,0.0,2.0,52,0.00,,,0.00,weatherlink.com 1.10,2013-05-10 16:49:00,
2013-05-10 10:04:00,69.9,51.0,30.05,SSW,213,0.0,6.0,51,0.00,,,0.00,weatherlink.com 1.10,2013-05-10 17:04:00,
2013-05-10 10:20:00,72.2,53.0,30.05,SW,214,1.0,1.0,52,0.00,,,0.00,weatherlink.com 1.10,2013-05-10 17:20:00,
2013-05-10 10:35:00,74.8,54.0,30.05,SW,215,0.0,0.0,48,0.00,,,0.00,weatherlink.com 1.10,2013-05-10 17:35:00,
2013-05-10 10:50:00,77.6,55.0,30.04,SSW,213,0.0,0.0,45,0.00,,,0.00,weatherlink.com 1.10,2013-05-10 17:50:00,
2013-05-10 11:05:00,79.5,56.0,30.04,SSW,213,0.0,0.0,44,0.00,,,0.00,weatherlink.com 1.10,2013-05-10 18:05:00,
2013-05-10 11:19:00,81.8,55.0,30.04,SSW,213,0.0,0.0,40,0.00,,,0.00,weatherlink.com 1.10,2013-05-10 18:19:00,
2013-05-10 11:34:00,83.2,55.0,30.03,South,187,0.0,3.0,38,0.00,,,0.00,weatherlink.com 1.10,2013-05-10 18:34:00,
2013-05-10 11:49:00,85.3,54.0,30.02,SSE,161,0.0,1.0,34,0.00,,,0.00,weatherlink.com 1.10,2013-05-10 18:49:00,
2013-05-10 12:04:00,85.4,55.0,30.02,SSE,162,0.0,1.0,35,0.00,,,0.00,weatherlink.com 1.10,2013-05-10 19:04:00,
2013-05-10 12:20:00,82.4,52.0,30.01,NW,321,1.0,8.0,35,0.00,,,0.00,weatherlink.com 1.10,2013-05-10 19:20:00,
2013-05-10 12:34:00,82.4,52.0,30.01,NNW,338,3.0,6.0,35,0.00,,,0.00,weatherlink.com 1.10,2013-05-10 19:34:00,
2013-05-10 12:50:00,82.1,53.0,30.00,NNW,330,0.0,7.0,37,0.00,,,0.00,weatherlink.com 1.10,2013-05-10 19:50:00,
2013-05-10 13:05:00,85.5,54.0,30.00,NNW,345,0.0,5.0,34,0.00,,,0.00,weatherlink.com 1.10,2013-05-10 20:05:00,
2013-05-10 13:20:00,87.3,56.0,29.99,North,355,0.0,4.0,35,0.00,,,0.00,weatherlink.com 1.10,2013-05-10 20:20:00,
2013-05-10 13:35:00,90.0,54.0,29.98,North,9,5.0,5.0,29,0.00,,,0.00,weatherlink.com 1.10,2013-05-10 20:35:00,
2013-05-10 13:50:00,88.6,53.0,29.98,ENE,71,0.0,5.0,30,0.00,,,0.00,weatherlink.com 1.10,2013-05-10 20:50:00,
2013-05-10 14:05:00,87.9,47.0,29.98,SSE,166,1.0,6.0,24,0.00,,,0.00,weatherlink.com 1.10,2013-05-10 21:05:00,
2013-05-10 14:21:00,87.4,49.0,29.98,SSE,153,3.0,13.0,26,0.00,,,0.00,weatherlink.com 1.10,2013-05-10 21:21:00,
2013-05-10 14:36:00,87.4,49.0,29.97,SE,132,9.0,9.0,26,0.00,,,0.00,weatherlink.com 1.10,2013-05-10 21:36:00,
2013-05-10 14:51:00,87.5,45.0,29.97,West,259,1.0,10.0,23,0.00,,,0.00,weatherlink.com 1.10,2013-05-10 21:51:00,
2013-05-10 15:06:00,88.8,46.0,29.96,West,272,1.0,10.0,23,0.00,,,0.00,weatherlink.com 1.10,2013-05-10 22:06:00,
2013-05-10 15:21:00,88.3,47.0,29.96,WSW,257,6.0,13.0,24,0.00,,,0.00,weatherlink.com 1.10,2013-05-10 22:21:00,
2013-05-10 15:36:00,88.1,46.0,29.95,WNW,296,3.0,9.0,23,0.00,,,0.00,weatherlink.com 1.10,2013-05-10 22:36:00,
2013-05-10 15:52:00,90.1,48.0,29.95,SSW,195,0.0,7.0,23,0.00,,,0.00,weatherlink.com 1.10,2013-05-10 22:52:00,
2013-05-10 16:07:00,91.2,49.0,29.94,South,179,3.0,7.0,23,0.00,,,0.00,weatherlink.com 1.10,2013-05-10 23:07:00,
2013-05-10 16:22:00,89.3,47.0,29.94,West,266,0.0,8.0,23,0.00,,,0.00,weatherlink.com 1.10,2013-05-10 23:22:00,
2013-05-10 16:37:00,87.8,50.0,29.93,SW,219,3.0,5.0,27,0.00,,,0.00,weatherlink.com 1.10,2013-05-10 23:37:00,
2013-05-10 16:52:00,88.4,47.0,29.93,SW,234,3.0,7.0,24,0.00,,,0.00,weatherlink.com 1.10,2013-05-10 23:52:00,
2013-05-10 17:07:00,86.4,52.0,29.93,WSW,253,1.0,3.0,30,0.00,,,0.00,weatherlink.com 1.10,2013-05-11 00:07:00,
2013-05-10 17:24:00,86.2,46.0,29.93,West,264,3.0,4.0,25,0.00,,,0.00,weatherlink.com 1.10,2013-05-11 00:24:00,
2013-05-10 17:38:00,88.1,48.0,29.93,West,266,0.0,2.0,25,0.00,,,0.00,weatherlink.com 1.10,2013-05-11 00:38:00,
2013-05-10 17:54:00,87.0,52.0,29.93,NW,322,9.0,16.0,30,0.00,,,0.00,weatherlink.com 1.10,2013-05-11 00:54:00,
2013-05-10 18:09:00,82.9,51.0,29.93,WNW,303,14.0,16.0,33,0.00,,,0.00,weatherlink.com 1.10,2013-05-11 01:09:00,
2013-05-10 18:24:00,81.3,53.0,29.94,WNW,301,13.0,17.0,38,0.00,,,0.00,weatherlink.com 1.10,2013-05-11 01:24:00,
2013-05-10 18:39:00,80.5,53.0,29.94,NW,319,10.0,15.0,38,0.00,,,0.00,weatherlink.com 1.10,2013-05-11 01:39:00,
2013-05-10 18:54:00,79.3,53.0,29.95,NW,315,6.0,11.0,40,0.00,,,0.00,weatherlink.com 1.10,2013-05-11 01:54:00,
2013-05-10 19:09:00,77.3,53.0,29.95,NW,315,3.0,7.0,43,0.00,,,0.00,weatherlink.com 1.10,2013-05-11 02:09:00,
2013-05-10 19:24:00,76.9,52.0,29.96,NW,314,2.0,5.0,42,0.00,,,0.00,weatherlink.com 1.10,2013-05-11 02:24:00,
2013-05-10 19:39:00,77.3,53.0,29.96,NW,309,5.0,6.0,43,0.00,,,0.00,weatherlink.com 1.10,2013-05-11 02:39:00,
2013-05-10 19:54:00,77.0,54.0,29.97,NW,305,1.0,9.0,45,0.00,,,0.00,weatherlink.com 1.10,2013-05-11 02:54:00,
2013-05-10 20:09:00,75.9,54.0,29.99,NW,309,9.0,9.0,46,0.00,,,0.00,weatherlink.com 1.10,2013-05-11 03:09:00,
2013-05-10 20:25:00,75.6,55.0,29.99,NW,324,5.0,7.0,49,0.00,,,0.00,weatherlink.com 1.10,2013-05-11 03:25:00,
2013-05-10 20:40:00,74.4,54.0,30.00,NW,325,6.0,14.0,49,0.00,,,0.00,weatherlink.com 1.10,2013-05-11 03:40:00,
2013-05-10 20:54:00,73.0,54.0,30.00,NW,326,3.0,11.0,52,0.00,,,0.00,weatherlink.com 1.10,2013-05-11 03:54:00,
2013-05-10 21:10:00,71.6,53.0,30.00,North,350,1.0,9.0,53,0.00,,,0.00,weatherlink.com 1.10,2013-05-11 04:10:00,
2013-05-10 21:25:00,70.5,54.0,30.01,NNW,333,3.0,5.0,56,0.00,,,0.00,weatherlink.com 1.10,2013-05-11 04:25:00,
2013-05-10 21:40:00,71.0,53.0,30.02,NW,313,4.0,7.0,53,0.00,,,0.00,weatherlink.com 1.10,2013-05-11 04:40:00,
2013-05-10 21:55:00,70.2,52.0,30.02,NW,323,5.0,7.0,53,0.00,,,0.00,weatherlink.com 1.10,2013-05-11 04:55:00,
2013-05-10 22:10:00,69.3,52.0,30.02,NW,322,3.0,5.0,54,0.00,,,0.00,weatherlink.com 1.10,2013-05-11 05:10:00,
2013-05-10 22:25:00,68.3,52.0,30.02,NW,322,0.0,2.0,57,0.00,,,0.00,weatherlink.com 1.10,2013-05-11 05:25:00,
2013-05-10 22:41:00,67.4,52.0,30.03,NW,322,0.0,3.0,58,0.00,,,0.00,weatherlink.com 1.10,2013-05-11 05:41:00,
2013-05-10 22:56:00,67.1,51.0,30.03,NW,322,0.0,0.0,57,0.00,,,0.00,weatherlink.com 1.10,2013-05-11 05:56:00,
2013-05-10 23:11:00,67.1,51.0,30.03,NW,322,0.0,0.0,56,0.00,,,0.00,weatherlink.com 1.10,2013-05-11 06:11:00,
2013-05-10 23:26:00,63.6,52.0,30.03,NW,322,0.0,0.0,66,0.00,,,0.00,weatherlink.com 1.10,2013-05-11 06:26:00,
2013-05-10 23:41:00,63.6,52.0,30.03,NW,322,0.0,0.0,66,0.00,,,0.00,weatherlink.com 1.10,2013-05-11 06:41:00,
2013-05-10 23:56:00,63.0,52.0,30.04,NW,322,0.0,0.0,68,0.00,,,0.00,weatherlink.com 1.10,2013-05-11 06:56:00,